sensor_id;sensor_type;location;lat;lon;timestamp;P1;durP1;ratioP1;P2;durP2;ratioP2
23988;SDS011;12202;52.136;5.592;2023-03-14T00:00:26;23.70;;;6.65;;
23988;SDS011;12202;52.136;5.592;2023-03-14T00:02:53;21.65;;;6.20;;
23988;SDS011;12202;52.136;5.592;2023-03-14T00:05:19;17.35;;;6.15;;
23988;SDS011;12202;52.136;5.592;2023-03-14T00:07:45;19.60;;;6.22;;
23988;SDS011;12202;52.136;5.592;2023-03-14T00:10:12;21.42;;;6.65;;
23988;SDS011;12202;52.136;5.592;2023-03-14T00:12:39;30.88;;;7.65;;
23988;SDS011;12202;52.136;5.592;2023-03-14T00:15:05;31.45;;;7.00;;
23988;SDS011;12202;52.136;5.592;2023-03-14T00:17:32;24.02;;;6.22;;
23988;SDS011;12202;52.136;5.592;2023-03-14T00:19:58;20.83;;;6.60;;
23988;SDS011;12202;52.136;5.592;2023-03-14T00:22:33;31.50;;;6.75;;
23988;SDS011;12202;52.136;5.592;2023-03-14T00:24:59;25.55;;;5.78;;
23988;SDS011;12202;52.136;5.592;2023-03-14T00:27:26;31.20;;;6.85;;
23988;SDS011;12202;52.136;5.592;2023-03-14T00:29:52;28.92;;;7.30;;
23988;SDS011;12202;52.136;5.592;2023-03-14T00:32:18;22.05;;;5.70;;
23988;SDS011;12202;52.136;5.592;2023-03-14T00:34:44;26.90;;;6.13;;
23988;SDS011;12202;52.136;5.592;2023-03-14T00:37:09;27.75;;;6.18;;
23988;SDS011;12202;52.136;5.592;2023-03-14T00:39:35;28.05;;;5.80;;
23988;SDS011;12202;52.136;5.592;2023-03-14T00:42:01;24.17;;;5.25;;
23988;SDS011;12202;52.136;5.592;2023-03-14T00:44:27;21.60;;;4.30;;
23988;SDS011;12202;52.136;5.592;2023-03-14T00:46:53;26.42;;;4.50;;
23988;SDS011;12202;52.136;5.592;2023-03-14T00:49:20;21.25;;;4.35;;
23988;SDS011;12202;52.136;5.592;2023-03-14T00:51:46;28.10;;;5.38;;
23988;SDS011;12202;52.136;5.592;2023-03-14T00:54:12;20.13;;;4.65;;
23988;SDS011;12202;52.136;5.592;2023-03-14T00:56:38;25.88;;;5.30;;
23988;SDS011;12202;52.136;5.592;2023-03-14T00:59:04;28.25;;;4.70;;
23988;SDS011;12202;52.136;5.592;2023-03-14T01:01:30;24.27;;;4.07;;
23988;SDS011;12202;52.136;5.592;2023-03-14T01:03:56;23.10;;;4.30;;
23988;SDS011;12202;52.136;5.592;2023-03-14T01:06:26;20.92;;;4.22;;
23988;SDS011;12202;52.136;5.592;2023-03-14T01:08:53;29.33;;;6.03;;
23988;SDS011;12202;52.136;5.592;2023-03-14T01:11:21;17.90;;;4.00;;
23988;SDS011;12202;52.136;5.592;2023-03-14T01:13:47;17.63;;;4.03;;
23988;SDS011;12202;52.136;5.592;2023-03-14T01:16:13;14.48;;;3.92;;
23988;SDS011;12202;52.136;5.592;2023-03-14T01:18:40;12.93;;;2.92;;
23988;SDS011;12202;52.136;5.592;2023-03-14T01:21:19;16.25;;;3.55;;
23988;SDS011;12202;52.136;5.592;2023-03-14T01:23:46;20.05;;;3.92;;
23988;SDS011;12202;52.136;5.592;2023-03-14T01:26:12;17.58;;;4.70;;
23988;SDS011;12202;52.136;5.592;2023-03-14T01:28:39;15.90;;;3.95;;
23988;SDS011;12202;52.136;5.592;2023-03-14T01:31:06;18.20;;;4.40;;
23988;SDS011;12202;52.136;5.592;2023-03-14T01:33:32;11.10;;;3.15;;
23988;SDS011;12202;52.136;5.592;2023-03-14T01:35:58;17.80;;;3.83;;
23988;SDS011;12202;52.136;5.592;2023-03-14T01:38:27;14.98;;;3.65;;
23988;SDS011;12202;52.136;5.592;2023-03-14T01:40:53;27.30;;;4.35;;
23988;SDS011;12202;52.136;5.592;2023-03-14T01:43:19;19.13;;;3.88;;
23988;SDS011;12202;52.136;5.592;2023-03-14T01:51:06;12.77;;;3.28;;
23988;SDS011;12202;52.136;5.592;2023-03-14T01:53:32;24.00;;;3.28;;
23988;SDS011;12202;52.136;5.592;2023-03-14T01:55:59;19.88;;;4.15;;
23988;SDS011;12202;52.136;5.592;2023-03-14T01:58:25;17.10;;;3.15;;
23988;SDS011;12202;52.136;5.592;2023-03-14T02:00:53;20.92;;;2.88;;
23988;SDS011;12202;52.136;5.592;2023-03-14T02:03:20;20.65;;;4.35;;
23988;SDS011;12202;52.136;5.592;2023-03-14T02:05:47;16.90;;;3.22;;
23988;SDS011;12202;52.136;5.592;2023-03-14T02:08:15;22.98;;;3.33;;
23988;SDS011;12202;52.136;5.592;2023-03-14T02:10:47;18.30;;;5.25;;
23988;SDS011;12202;52.136;5.592;2023-03-14T02:13:14;17.45;;;3.53;;
23988;SDS011;12202;52.136;5.592;2023-03-14T02:15:41;16.42;;;2.85;;
23988;SDS011;12202;52.136;5.592;2023-03-14T02:18:07;31.90;;;4.80;;
23988;SDS011;12202;52.136;5.592;2023-03-14T02:20:35;16.45;;;3.63;;
23988;SDS011;12202;52.136;5.592;2023-03-14T02:23:04;13.00;;;3.53;;
23988;SDS011;12202;52.136;5.592;2023-03-14T02:25:53;16.33;;;3.85;;
23988;SDS011;12202;52.136;5.592;2023-03-14T02:28:22;17.83;;;3.30;;
23988;SDS011;12202;52.136;5.592;2023-03-14T02:30:48;21.70;;;4.75;;
23988;SDS011;12202;52.136;5.592;2023-03-14T02:33:21;20.02;;;3.67;;
23988;SDS011;12202;52.136;5.592;2023-03-14T02:35:59;19.40;;;4.55;;
23988;SDS011;12202;52.136;5.592;2023-03-14T02:41:09;17.33;;;6.90;;
23988;SDS011;12202;52.136;5.592;2023-03-14T02:43:35;25.25;;;7.43;;
23988;SDS011;12202;52.136;5.592;2023-03-14T02:46:01;28.08;;;7.70;;
23988;SDS011;12202;52.136;5.592;2023-03-14T02:49:12;22.25;;;6.38;;
23988;SDS011;12202;52.136;5.592;2023-03-14T02:51:17;18.58;;;6.00;;
23988;SDS011;12202;52.136;5.592;2023-03-14T02:53:43;20.75;;;7.10;;
23988;SDS011;12202;52.136;5.592;2023-03-14T02:56:10;20.95;;;5.93;;
23988;SDS011;12202;52.136;5.592;2023-03-14T02:58:36;17.42;;;6.10;;
23988;SDS011;12202;52.136;5.592;2023-03-14T03:01:02;21.63;;;5.65;;
23988;SDS011;12202;52.136;5.592;2023-03-14T03:03:28;25.23;;;6.45;;
23988;SDS011;12202;52.136;5.592;2023-03-14T03:05:55;22.10;;;5.82;;
23988;SDS011;12202;52.136;5.592;2023-03-14T03:08:22;20.75;;;5.70;;
23988;SDS011;12202;52.136;5.592;2023-03-14T03:10:49;24.77;;;5.47;;
23988;SDS011;12202;52.136;5.592;2023-03-14T03:13:15;27.50;;;7.43;;
23988;SDS011;12202;52.136;5.592;2023-03-14T03:15:42;20.88;;;6.00;;
23988;SDS011;12202;52.136;5.592;2023-03-14T03:18:08;25.73;;;5.55;;
23988;SDS011;12202;52.136;5.592;2023-03-14T03:20:34;27.00;;;5.57;;
23988;SDS011;12202;52.136;5.592;2023-03-14T03:23:00;21.92;;;5.85;;
23988;SDS011;12202;52.136;5.592;2023-03-14T03:25:26;16.30;;;5.97;;
23988;SDS011;12202;52.136;5.592;2023-03-14T03:27:53;26.08;;;7.25;;
23988;SDS011;12202;52.136;5.592;2023-03-14T03:30:19;23.80;;;5.80;;
23988;SDS011;12202;52.136;5.592;2023-03-14T03:32:45;28.33;;;6.75;;
23988;SDS011;12202;52.136;5.592;2023-03-14T03:35:11;20.92;;;4.85;;
23988;SDS011;12202;52.136;5.592;2023-03-14T03:37:37;14.23;;;4.70;;
23988;SDS011;12202;52.136;5.592;2023-03-14T03:40:03;22.40;;;5.18;;
23988;SDS011;12202;52.136;5.592;2023-03-14T03:42:31;26.15;;;5.05;;
23988;SDS011;12202;52.136;5.592;2023-03-14T03:44:57;24.08;;;5.07;;
23988;SDS011;12202;52.136;5.592;2023-03-14T03:47:23;22.00;;;5.10;;
23988;SDS011;12202;52.136;5.592;2023-03-14T03:49:49;25.00;;;5.55;;
23988;SDS011;12202;52.136;5.592;2023-03-14T03:52:15;19.40;;;5.70;;
23988;SDS011;12202;52.136;5.592;2023-03-14T03:54:41;23.48;;;5.00;;
23988;SDS011;12202;52.136;5.592;2023-03-14T03:57:07;20.77;;;6.72;;
23988;SDS011;12202;52.136;5.592;2023-03-14T03:59:33;24.55;;;7.38;;
23988;SDS011;12202;52.136;5.592;2023-03-14T04:01:59;19.25;;;5.50;;
23988;SDS011;12202;52.136;5.592;2023-03-14T04:04:25;17.63;;;5.35;;
23988;SDS011;12202;52.136;5.592;2023-03-14T04:06:51;18.27;;;5.25;;
23988;SDS011;12202;52.136;5.592;2023-03-14T04:09:17;19.02;;;5.60;;
23988;SDS011;12202;52.136;5.592;2023-03-14T04:11:43;21.55;;;5.47;;
23988;SDS011;12202;52.136;5.592;2023-03-14T04:14:09;16.48;;;4.72;;
23988;SDS011;12202;52.136;5.592;2023-03-14T04:16:35;18.20;;;4.85;;
23988;SDS011;12202;52.136;5.592;2023-03-14T04:19:02;17.75;;;4.85;;
23988;SDS011;12202;52.136;5.592;2023-03-14T04:21:28;25.88;;;4.25;;
23988;SDS011;12202;52.136;5.592;2023-03-14T04:23:54;18.02;;;5.05;;
23988;SDS011;12202;52.136;5.592;2023-03-14T04:26:20;22.30;;;4.95;;
23988;SDS011;12202;52.136;5.592;2023-03-14T04:28:46;17.48;;;4.43;;
23988;SDS011;12202;52.136;5.592;2023-03-14T04:31:13;29.45;;;6.18;;
23988;SDS011;12202;52.136;5.592;2023-03-14T04:33:39;22.05;;;4.60;;
23988;SDS011;12202;52.136;5.592;2023-03-14T04:36:05;23.65;;;4.45;;
23988;SDS011;12202;52.136;5.592;2023-03-14T04:38:31;18.48;;;4.28;;
23988;SDS011;12202;52.136;5.592;2023-03-14T04:40:57;19.73;;;3.90;;
23988;SDS011;12202;52.136;5.592;2023-03-14T04:43:24;19.50;;;4.28;;
23988;SDS011;12202;52.136;5.592;2023-03-14T04:45:50;27.08;;;4.70;;
23988;SDS011;12202;52.136;5.592;2023-03-14T04:48:16;24.98;;;4.97;;
23988;SDS011;12202;52.136;5.592;2023-03-14T04:50:42;24.40;;;5.32;;
23988;SDS011;12202;52.136;5.592;2023-03-14T04:53:11;20.60;;;4.32;;
23988;SDS011;12202;52.136;5.592;2023-03-14T04:55:37;22.27;;;5.22;;
23988;SDS011;12202;52.136;5.592;2023-03-14T04:58:03;20.67;;;4.68;;
23988;SDS011;12202;52.136;5.592;2023-03-14T05:00:29;38.88;;;7.28;;
23988;SDS011;12202;52.136;5.592;2023-03-14T05:02:55;27.67;;;5.28;;
23988;SDS011;12202;52.136;5.592;2023-03-14T05:05:21;23.27;;;5.20;;
23988;SDS011;12202;52.136;5.592;2023-03-14T05:07:47;21.55;;;4.95;;
23988;SDS011;12202;52.136;5.592;2023-03-14T05:10:13;22.35;;;6.03;;
23988;SDS011;12202;52.136;5.592;2023-03-14T05:12:39;21.17;;;4.50;;
23988;SDS011;12202;52.136;5.592;2023-03-14T05:15:05;19.50;;;4.68;;
23988;SDS011;12202;52.136;5.592;2023-03-14T05:17:34;16.23;;;4.57;;
23988;SDS011;12202;52.136;5.592;2023-03-14T05:20:00;13.80;;;4.35;;
23988;SDS011;12202;52.136;5.592;2023-03-14T05:22:26;19.10;;;4.93;;
23988;SDS011;12202;52.136;5.592;2023-03-14T05:24:52;16.10;;;4.03;;
23988;SDS011;12202;52.136;5.592;2023-03-14T05:27:21;19.38;;;4.78;;
23988;SDS011;12202;52.136;5.592;2023-03-14T05:29:47;24.08;;;5.72;;
23988;SDS011;12202;52.136;5.592;2023-03-14T05:32:13;18.60;;;5.05;;
23988;SDS011;12202;52.136;5.592;2023-03-14T05:34:39;20.55;;;6.80;;
23988;SDS011;12202;52.136;5.592;2023-03-14T05:37:05;23.20;;;6.43;;
23988;SDS011;12202;52.136;5.592;2023-03-14T05:39:32;22.33;;;5.63;;
23988;SDS011;12202;52.136;5.592;2023-03-14T05:41:58;24.58;;;7.25;;
23988;SDS011;12202;52.136;5.592;2023-03-14T05:44:24;21.00;;;7.50;;
23988;SDS011;12202;52.136;5.592;2023-03-14T05:46:50;25.73;;;7.28;;
23988;SDS011;12202;52.136;5.592;2023-03-14T05:49:15;20.23;;;6.68;;
23988;SDS011;12202;52.136;5.592;2023-03-14T05:51:41;17.88;;;5.78;;
23988;SDS011;12202;52.136;5.592;2023-03-14T05:54:07;17.63;;;6.10;;
23988;SDS011;12202;52.136;5.592;2023-03-14T05:56:33;20.95;;;6.53;;
23988;SDS011;12202;52.136;5.592;2023-03-14T05:58:59;17.52;;;6.18;;
23988;SDS011;12202;52.136;5.592;2023-03-14T06:01:28;24.67;;;7.65;;
23988;SDS011;12202;52.136;5.592;2023-03-14T06:03:54;19.23;;;7.53;;
23988;SDS011;12202;52.136;5.592;2023-03-14T06:06:20;23.40;;;7.75;;
23988;SDS011;12202;52.136;5.592;2023-03-14T06:08:46;18.85;;;7.72;;
23988;SDS011;12202;52.136;5.592;2023-03-14T06:11:12;26.00;;;7.97;;
23988;SDS011;12202;52.136;5.592;2023-03-14T06:13:38;27.48;;;8.55;;
23988;SDS011;12202;52.136;5.592;2023-03-14T06:16:04;25.73;;;8.55;;
23988;SDS011;12202;52.136;5.592;2023-03-14T06:18:30;29.63;;;9.13;;
23988;SDS011;12202;52.136;5.592;2023-03-14T06:20:57;22.92;;;9.00;;
23988;SDS011;12202;52.136;5.592;2023-03-14T06:23:23;19.70;;;8.15;;
23988;SDS011;12202;52.136;5.592;2023-03-14T06:25:50;18.88;;;7.18;;
23988;SDS011;12202;52.136;5.592;2023-03-14T06:28:16;27.08;;;8.38;;
23988;SDS011;12202;52.136;5.592;2023-03-14T06:30:42;25.98;;;8.43;;
23988;SDS011;12202;52.136;5.592;2023-03-14T06:33:08;24.13;;;7.97;;
23988;SDS011;12202;52.136;5.592;2023-03-14T06:35:34;24.45;;;7.45;;
23988;SDS011;12202;52.136;5.592;2023-03-14T06:38:00;25.77;;;10.27;;
23988;SDS011;12202;52.136;5.592;2023-03-14T06:40:26;27.58;;;8.98;;
23988;SDS011;12202;52.136;5.592;2023-03-14T06:42:52;26.83;;;8.10;;
23988;SDS011;12202;52.136;5.592;2023-03-14T06:45:18;26.88;;;8.38;;
23988;SDS011;12202;52.136;5.592;2023-03-14T06:47:44;25.85;;;8.63;;
23988;SDS011;12202;52.136;5.592;2023-03-14T06:50:10;31.42;;;8.90;;
23988;SDS011;12202;52.136;5.592;2023-03-14T06:52:36;25.30;;;10.07;;
23988;SDS011;12202;52.136;5.592;2023-03-14T06:55:06;26.20;;;9.63;;
23988;SDS011;12202;52.136;5.592;2023-03-14T06:57:32;23.77;;;10.30;;
23988;SDS011;12202;52.136;5.592;2023-03-14T06:59:58;25.02;;;9.20;;
23988;SDS011;12202;52.136;5.592;2023-03-14T07:02:24;18.52;;;8.55;;
23988;SDS011;12202;52.136;5.592;2023-03-14T07:04:50;17.48;;;7.43;;
23988;SDS011;12202;52.136;5.592;2023-03-14T07:07:16;10.60;;;4.22;;
23988;SDS011;12202;52.136;5.592;2023-03-14T07:09:42;8.90;;;2.35;;
23988;SDS011;12202;52.136;5.592;2023-03-14T07:12:08;2.58;;;1.58;;
23988;SDS011;12202;52.136;5.592;2023-03-14T07:14:34;4.18;;;1.60;;
23988;SDS011;12202;52.136;5.592;2023-03-14T07:17:00;4.65;;;1.20;;
23988;SDS011;12202;52.136;5.592;2023-03-14T07:19:25;8.40;;;1.90;;
23988;SDS011;12202;52.136;5.592;2023-03-14T07:21:51;9.43;;;3.65;;
23988;SDS011;12202;52.136;5.592;2023-03-14T07:24:17;4.53;;;1.50;;
23988;SDS011;12202;52.136;5.592;2023-03-14T07:26:43;4.55;;;1.83;;
23988;SDS011;12202;52.136;5.592;2023-03-14T07:29:09;7.47;;;2.17;;
23988;SDS011;12202;52.136;5.592;2023-03-14T07:31:35;4.75;;;1.80;;
23988;SDS011;12202;52.136;5.592;2023-03-14T07:34:01;7.20;;;2.13;;
23988;SDS011;12202;52.136;5.592;2023-03-14T07:36:28;5.80;;;1.95;;
23988;SDS011;12202;52.136;5.592;2023-03-14T07:38:54;8.73;;;1.65;;
23988;SDS011;12202;52.136;5.592;2023-03-14T07:41:19;10.30;;;2.08;;
23988;SDS011;12202;52.136;5.592;2023-03-14T07:43:46;4.63;;;1.60;;
23988;SDS011;12202;52.136;5.592;2023-03-14T07:46:12;4.38;;;2.08;;
23988;SDS011;12202;52.136;5.592;2023-03-14T07:48:38;6.13;;;1.83;;
23988;SDS011;12202;52.136;5.592;2023-03-14T07:51:04;5.05;;;1.60;;
23988;SDS011;12202;52.136;5.592;2023-03-14T07:53:30;1.80;;;1.17;;
23988;SDS011;12202;52.136;5.592;2023-03-14T07:55:56;5.68;;;1.30;;
23988;SDS011;12202;52.136;5.592;2023-03-14T07:58:22;5.13;;;1.50;;
23988;SDS011;12202;52.136;5.592;2023-03-14T08:00:48;7.35;;;2.38;;
23988;SDS011;12202;52.136;5.592;2023-03-14T08:03:14;5.18;;;1.85;;
23988;SDS011;12202;52.136;5.592;2023-03-14T08:05:41;6.60;;;1.75;;
23988;SDS011;12202;52.136;5.592;2023-03-14T08:08:07;6.65;;;2.05;;
23988;SDS011;12202;52.136;5.592;2023-03-14T08:10:33;13.13;;;3.35;;
23988;SDS011;12202;52.136;5.592;2023-03-14T08:13:00;9.00;;;2.15;;
23988;SDS011;12202;52.136;5.592;2023-03-14T08:15:26;13.55;;;1.85;;
23988;SDS011;12202;52.136;5.592;2023-03-14T08:17:52;16.27;;;2.35;;
23988;SDS011;12202;52.136;5.592;2023-03-14T08:20:19;7.28;;;2.10;;
23988;SDS011;12202;52.136;5.592;2023-03-14T08:22:45;15.57;;;2.40;;
23988;SDS011;12202;52.136;5.592;2023-03-14T08:25:11;11.98;;;1.50;;
23988;SDS011;12202;52.136;5.592;2023-03-14T08:27:37;9.90;;;1.75;;
23988;SDS011;12202;52.136;5.592;2023-03-14T08:30:07;10.18;;;1.85;;
23988;SDS011;12202;52.136;5.592;2023-03-14T08:32:33;5.82;;;1.10;;
23988;SDS011;12202;52.136;5.592;2023-03-14T08:34:59;15.30;;;1.95;;
23988;SDS011;12202;52.136;5.592;2023-03-14T08:37:25;10.23;;;1.85;;
23988;SDS011;12202;52.136;5.592;2023-03-14T08:39:52;11.63;;;1.98;;
23988;SDS011;12202;52.136;5.592;2023-03-14T08:42:18;12.35;;;1.88;;
23988;SDS011;12202;52.136;5.592;2023-03-14T08:44:44;12.85;;;1.60;;
23988;SDS011;12202;52.136;5.592;2023-03-14T08:47:10;5.28;;;1.20;;
23988;SDS011;12202;52.136;5.592;2023-03-14T08:49:36;7.97;;;1.40;;
23988;SDS011;12202;52.136;5.592;2023-03-14T08:52:03;12.23;;;1.27;;
23988;SDS011;12202;52.136;5.592;2023-03-14T08:54:29;8.02;;;1.50;;
23988;SDS011;12202;52.136;5.592;2023-03-14T08:56:56;6.40;;;1.75;;
23988;SDS011;12202;52.136;5.592;2023-03-14T08:59:22;7.90;;;1.13;;
23988;SDS011;12202;52.136;5.592;2023-03-14T09:01:48;4.90;;;1.13;;
23988;SDS011;12202;52.136;5.592;2023-03-14T09:04:14;10.40;;;1.73;;
23988;SDS011;12202;52.136;5.592;2023-03-14T09:06:40;10.23;;;1.42;;
23988;SDS011;12202;52.136;5.592;2023-03-14T09:09:06;6.60;;;1.55;;
23988;SDS011;12202;52.136;5.592;2023-03-14T09:11:32;5.40;;;1.10;;
23988;SDS011;12202;52.136;5.592;2023-03-14T09:13:58;7.13;;;1.65;;
23988;SDS011;12202;52.136;5.592;2023-03-14T09:16:24;5.13;;;1.20;;
23988;SDS011;12202;52.136;5.592;2023-03-14T09:18:50;7.78;;;1.60;;
23988;SDS011;12202;52.136;5.592;2023-03-14T09:21:19;9.52;;;1.85;;
23988;SDS011;12202;52.136;5.592;2023-03-14T09:23:45;9.32;;;1.58;;
23988;SDS011;12202;52.136;5.592;2023-03-14T09:26:11;11.90;;;2.40;;
23988;SDS011;12202;52.136;5.592;2023-03-14T09:28:37;18.88;;;2.47;;
23988;SDS011;12202;52.136;5.592;2023-03-14T09:31:07;17.08;;;2.83;;
23988;SDS011;12202;52.136;5.592;2023-03-14T09:33:34;15.82;;;2.38;;
23988;SDS011;12202;52.136;5.592;2023-03-14T09:36:00;17.33;;;2.38;;
23988;SDS011;12202;52.136;5.592;2023-03-14T09:38:26;14.45;;;2.42;;
23988;SDS011;12202;52.136;5.592;2023-03-14T09:40:53;13.23;;;2.67;;
23988;SDS011;12202;52.136;5.592;2023-03-14T09:43:19;17.10;;;2.67;;
23988;SDS011;12202;52.136;5.592;2023-03-14T09:45:47;18.95;;;3.20;;
23988;SDS011;12202;52.136;5.592;2023-03-14T09:48:15;26.85;;;4.47;;
23988;SDS011;12202;52.136;5.592;2023-03-14T09:50:43;15.40;;;4.22;;
23988;SDS011;12202;52.136;5.592;2023-03-14T09:53:11;27.77;;;3.45;;
23988;SDS011;12202;52.136;5.592;2023-03-14T09:55:38;21.88;;;3.13;;
23988;SDS011;12202;52.136;5.592;2023-03-14T09:58:09;27.20;;;3.97;;
23988;SDS011;12202;52.136;5.592;2023-03-14T10:00:35;31.05;;;5.72;;
23988;SDS011;12202;52.136;5.592;2023-03-14T10:05:37;27.75;;;3.75;;
23988;SDS011;12202;52.136;5.592;2023-03-14T10:08:03;30.92;;;4.30;;
23988;SDS011;12202;52.136;5.592;2023-03-14T10:10:29;28.10;;;4.88;;
23988;SDS011;12202;52.136;5.592;2023-03-14T10:12:57;34.97;;;3.83;;
23988;SDS011;12202;52.136;5.592;2023-03-14T10:15:30;28.58;;;4.10;;
23988;SDS011;12202;52.136;5.592;2023-03-14T10:17:58;28.92;;;4.45;;
23988;SDS011;12202;52.136;5.592;2023-03-14T10:20:34;27.48;;;5.32;;
23988;SDS011;12202;52.136;5.592;2023-03-14T10:23:18;30.77;;;4.13;;
23988;SDS011;12202;52.136;5.592;2023-03-14T10:25:46;35.10;;;4.97;;
23988;SDS011;12202;52.136;5.592;2023-03-14T10:28:46;22.60;;;4.22;;
23988;SDS011;12202;52.136;5.592;2023-03-14T10:31:04;34.22;;;4.40;;
23988;SDS011;12202;52.136;5.592;2023-03-14T10:33:34;31.42;;;4.03;;
23988;SDS011;12202;52.136;5.592;2023-03-14T10:38:34;36.25;;;4.72;;
23988;SDS011;12202;52.136;5.592;2023-03-14T10:41:00;31.48;;;5.10;;
23988;SDS011;12202;52.136;5.592;2023-03-14T10:43:33;28.17;;;4.10;;
23988;SDS011;12202;52.136;5.592;2023-03-14T10:46:01;27.05;;;4.70;;
23988;SDS011;12202;52.136;5.592;2023-03-14T10:51:10;34.40;;;6.63;;
23988;SDS011;12202;52.136;5.592;2023-03-14T10:56:06;38.33;;;4.47;;
23988;SDS011;12202;52.136;5.592;2023-03-14T10:58:33;33.70;;;5.30;;
23988;SDS011;12202;52.136;5.592;2023-03-14T11:01:14;37.92;;;4.55;;
23988;SDS011;12202;52.136;5.592;2023-03-14T11:03:45;46.67;;;4.80;;
23988;SDS011;12202;52.136;5.592;2023-03-14T11:06:21;41.38;;;5.75;;
23988;SDS011;12202;52.136;5.592;2023-03-14T11:11:18;32.55;;;4.70;;
23988;SDS011;12202;52.136;5.592;2023-03-14T11:16:27;47.80;;;5.70;;
23988;SDS011;12202;52.136;5.592;2023-03-14T11:21:35;26.15;;;4.90;;
23988;SDS011;12202;52.136;5.592;2023-03-14T11:26:32;25.65;;;4.10;;
23988;SDS011;12202;52.136;5.592;2023-03-14T11:29:08;29.88;;;3.47;;
23988;SDS011;12202;52.136;5.592;2023-03-14T11:31:38;32.42;;;4.28;;
23988;SDS011;12202;52.136;5.592;2023-03-14T11:36:41;24.50;;;3.95;;
23988;SDS011;12202;52.136;5.592;2023-03-14T11:39:17;33.17;;;4.82;;
23988;SDS011;12202;52.136;5.592;2023-03-14T11:41:47;36.65;;;3.95;;
23988;SDS011;12202;52.136;5.592;2023-03-14T11:47:23;29.90;;;3.33;;
23988;SDS011;12202;52.136;5.592;2023-03-14T11:49:51;26.83;;;3.58;;
23988;SDS011;12202;52.136;5.592;2023-03-14T11:55:04;26.20;;;3.50;;
23988;SDS011;12202;52.136;5.592;2023-03-14T11:57:31;26.73;;;4.20;;
23988;SDS011;12202;52.136;5.592;2023-03-14T12:02:52;26.88;;;3.15;;
23988;SDS011;12202;52.136;5.592;2023-03-14T12:08:03;19.88;;;3.42;;
23988;SDS011;12202;52.136;5.592;2023-03-14T12:10:42;20.58;;;2.70;;
23988;SDS011;12202;52.136;5.592;2023-03-14T12:13:10;24.45;;;3.30;;
23988;SDS011;12202;52.136;5.592;2023-03-14T12:15:40;19.27;;;2.53;;
23988;SDS011;12202;52.136;5.592;2023-03-14T12:20:59;21.90;;;4.07;;
23988;SDS011;12202;52.136;5.592;2023-03-14T12:23:26;17.55;;;3.40;;
23988;SDS011;12202;52.136;5.592;2023-03-14T12:26:13;17.27;;;3.40;;
23988;SDS011;12202;52.136;5.592;2023-03-14T12:28:49;20.90;;;3.28;;
23988;SDS011;12202;52.136;5.592;2023-03-14T12:39:22;18.35;;;2.53;;
23988;SDS011;12202;52.136;5.592;2023-03-14T12:41:51;12.20;;;2.22;;
23988;SDS011;12202;52.136;5.592;2023-03-14T12:46:59;17.67;;;3.72;;
23988;SDS011;12202;52.136;5.592;2023-03-14T12:49:29;19.20;;;3.00;;
23988;SDS011;12202;52.136;5.592;2023-03-14T12:51:59;15.07;;;2.88;;
23988;SDS011;12202;52.136;5.592;2023-03-14T12:54:27;18.10;;;2.58;;
23988;SDS011;12202;52.136;5.592;2023-03-14T12:57:01;21.13;;;3.17;;
23988;SDS011;12202;52.136;5.592;2023-03-14T12:59:37;23.88;;;2.80;;
23988;SDS011;12202;52.136;5.592;2023-03-14T13:04:33;13.18;;;2.38;;
23988;SDS011;12202;52.136;5.592;2023-03-14T13:07:00;13.63;;;1.98;;
23988;SDS011;12202;52.136;5.592;2023-03-14T13:12:02;13.77;;;2.35;;
23988;SDS011;12202;52.136;5.592;2023-03-14T13:14:28;20.33;;;2.42;;
23988;SDS011;12202;52.136;5.592;2023-03-14T13:16:55;16.63;;;2.85;;
23988;SDS011;12202;52.136;5.592;2023-03-14T13:19:28;6.65;;;1.83;;
23988;SDS011;12202;52.136;5.592;2023-03-14T13:22:01;10.48;;;2.15;;
23988;SDS011;12202;52.136;5.592;2023-03-14T13:24:27;11.25;;;2.38;;
23988;SDS011;12202;52.136;5.592;2023-03-14T13:26:55;14.77;;;2.47;;
23988;SDS011;12202;52.136;5.592;2023-03-14T13:29:27;14.30;;;2.60;;
23988;SDS011;12202;52.136;5.592;2023-03-14T13:31:54;22.30;;;3.28;;
23988;SDS011;12202;52.136;5.592;2023-03-14T13:34:24;14.90;;;2.10;;
23988;SDS011;12202;52.136;5.592;2023-03-14T13:36:53;12.60;;;2.13;;
23988;SDS011;12202;52.136;5.592;2023-03-14T13:39:20;13.73;;;1.75;;
23988;SDS011;12202;52.136;5.592;2023-03-14T13:41:54;10.20;;;2.00;;
23988;SDS011;12202;52.136;5.592;2023-03-14T13:44:28;12.55;;;2.22;;
23988;SDS011;12202;52.136;5.592;2023-03-14T13:46:58;10.23;;;1.88;;
23988;SDS011;12202;52.136;5.592;2023-03-14T13:49:26;9.05;;;2.17;;
23988;SDS011;12202;52.136;5.592;2023-03-14T13:51:53;14.65;;;3.60;;
23988;SDS011;12202;52.136;5.592;2023-03-14T13:54:20;27.75;;;3.67;;
23988;SDS011;12202;52.136;5.592;2023-03-14T13:56:47;13.50;;;2.63;;
23988;SDS011;12202;52.136;5.592;2023-03-14T14:01:48;12.15;;;2.25;;
23988;SDS011;12202;52.136;5.592;2023-03-14T14:04:15;9.02;;;2.42;;
23988;SDS011;12202;52.136;5.592;2023-03-14T14:09:50;13.40;;;1.60;;
23988;SDS011;12202;52.136;5.592;2023-03-14T14:12:22;9.77;;;1.77;;
23988;SDS011;12202;52.136;5.592;2023-03-14T14:17:20;11.43;;;1.73;;
23988;SDS011;12202;52.136;5.592;2023-03-14T14:19:46;14.20;;;2.00;;
23988;SDS011;12202;52.136;5.592;2023-03-14T14:22:13;16.92;;;1.98;;
23988;SDS011;12202;52.136;5.592;2023-03-14T14:24:39;10.30;;;1.65;;
23988;SDS011;12202;52.136;5.592;2023-03-14T14:27:19;10.73;;;2.08;;
23988;SDS011;12202;52.136;5.592;2023-03-14T14:30:00;17.58;;;2.28;;
23988;SDS011;12202;52.136;5.592;2023-03-14T14:32:26;15.75;;;1.83;;
23988;SDS011;12202;52.136;5.592;2023-03-14T14:37:26;19.00;;;2.22;;
23988;SDS011;12202;52.136;5.592;2023-03-14T14:39:53;10.68;;;2.38;;
23988;SDS011;12202;52.136;5.592;2023-03-14T14:42:20;8.15;;;1.85;;
23988;SDS011;12202;52.136;5.592;2023-03-14T14:44:47;12.50;;;2.33;;
23988;SDS011;12202;52.136;5.592;2023-03-14T14:47:15;9.05;;;2.47;;
23988;SDS011;12202;52.136;5.592;2023-03-14T14:49:43;9.68;;;2.47;;
23988;SDS011;12202;52.136;5.592;2023-03-14T14:52:13;23.98;;;6.82;;
23988;SDS011;12202;52.136;5.592;2023-03-14T14:54:53;27.10;;;5.78;;
23988;SDS011;12202;52.136;5.592;2023-03-14T14:57:21;14.95;;;3.10;;
23988;SDS011;12202;52.136;5.592;2023-03-14T14:59:55;26.02;;;8.63;;
23988;SDS011;12202;52.136;5.592;2023-03-14T15:02:29;25.13;;;8.98;;
23988;SDS011;12202;52.136;5.592;2023-03-14T15:04:58;40.97;;;13.27;;
23988;SDS011;12202;52.136;5.592;2023-03-14T15:07:24;23.92;;;8.88;;
23988;SDS011;12202;52.136;5.592;2023-03-14T15:09:50;14.70;;;3.78;;
23988;SDS011;12202;52.136;5.592;2023-03-14T15:12:16;13.02;;;2.70;;
23988;SDS011;12202;52.136;5.592;2023-03-14T15:14:42;17.27;;;4.25;;
23988;SDS011;12202;52.136;5.592;2023-03-14T15:17:10;13.30;;;3.22;;
23988;SDS011;12202;52.136;5.592;2023-03-14T15:19:36;10.27;;;2.45;;
23988;SDS011;12202;52.136;5.592;2023-03-14T15:22:04;15.93;;;2.80;;
23988;SDS011;12202;52.136;5.592;2023-03-14T15:24:31;15.05;;;3.33;;
23988;SDS011;12202;52.136;5.592;2023-03-14T15:26:57;16.85;;;2.67;;
23988;SDS011;12202;52.136;5.592;2023-03-14T15:29:26;15.48;;;2.60;;
23988;SDS011;12202;52.136;5.592;2023-03-14T15:31:55;14.77;;;2.58;;
23988;SDS011;12202;52.136;5.592;2023-03-14T15:34:21;11.57;;;2.33;;
23988;SDS011;12202;52.136;5.592;2023-03-14T15:36:47;13.77;;;2.60;;
23988;SDS011;12202;52.136;5.592;2023-03-14T15:39:13;19.45;;;3.08;;
23988;SDS011;12202;52.136;5.592;2023-03-14T15:41:39;16.77;;;2.97;;
23988;SDS011;12202;52.136;5.592;2023-03-14T15:44:05;10.98;;;2.40;;
23988;SDS011;12202;52.136;5.592;2023-03-14T15:46:31;16.67;;;3.05;;
23988;SDS011;12202;52.136;5.592;2023-03-14T15:48:57;10.43;;;2.38;;